Time;durP1;ratioP1;P1;durP2;ratioP2;P2;SDS_P1;SDS_P2;PMS_P1;PMS_P2;Temp;Humidity;BMP_temperature;BMP_pressure;BME280_temperature;BME280_humidity;BME280_pressure;Samples;Min_cycle;Max_cycle;Signal;HPM_P1;HPM_P2
2023/04/29 00:00:33;;;;;;;8.43;6.10;;;12.80;99.90;;;;;;5044647;28;20762;-71
2023/04/29 00:03:00;;;;;;;7.80;6.50;;;12.80;99.90;;;;;;5037151;28;20204;-71
2023/04/29 00:05:26;;;;;;;8.60;6.10;;;12.80;99.90;;;;;;5033281;28;20252;-71
2023/04/29 00:07:52;;;;;;;11.53;6.50;;;12.80;99.90;;;;;;5038117;28;20224;-71
2023/04/29 00:10:17;;;;;;;12.63;6.87;;;12.80;99.90;;;;;;5032817;28;20689;-77
2023/04/29 00:12:43;;;;;;;10.27;6.83;;;12.60;99.90;;;;;;5027039;28;20206;-75
2023/04/29 00:15:09;;;;;;;8.37;6.53;;;12.70;99.90;;;;;;5044528;28;20168;-74
2023/04/29 00:17:35;;;;;;;10.70;6.30;;;12.60;99.90;;;;;;5046124;28;20216;-72
2023/04/29 00:20:01;;;;;;;8.43;7.07;;;12.60;99.90;;;;;;5032832;28;20216;-75
2023/04/29 00:22:27;;;;;;;8.80;6.30;;;12.60;99.90;;;;;;5040336;28;20211;-76
2023/04/29 00:24:53;;;;;;;10.00;6.43;;;12.70;99.90;;;;;;5045346;28;20180;-73
2023/04/29 00:27:18;;;;;;;8.23;6.80;;;12.70;99.90;;;;;;5035935;28;20236;-73
2023/04/29 00:29:44;;;;;;;9.53;6.30;;;12.70;99.90;;;;;;5041421;28;20622;-74
2023/04/29 00:32:10;;;;;;;10.63;6.63;;;12.70;99.90;;;;;;5046637;28;20211;-75
2023/04/29 00:34:35;;;;;;;8.23;6.93;;;12.70;99.90;;;;;;5043321;28;20218;-75
2023/04/29 00:37:01;;;;;;;7.00;5.73;;;12.60;99.90;;;;;;5039758;28;20176;-75
2023/04/29 00:39:27;;;;;;;7.77;6.27;;;12.60;99.90;;;;;;5034140;28;20635;-75
2023/04/29 00:41:52;;;;;;;9.37;6.83;;;12.70;99.90;;;;;;5033471;28;20212;-76
2023/04/29 00:44:18;;;;;;;7.37;6.67;;;12.70;99.90;;;;;;5033796;28;20200;-74
2023/04/29 00:46:44;;;;;;;10.07;6.80;;;12.60;99.90;;;;;;5037958;28;20286;-72
2023/04/29 00:49:12;;;;;;;8.17;6.67;;;12.60;99.90;;;;;;5035015;28;20212;-74
2023/04/29 00:51:40;;;;;;;10.87;7.17;;;12.60;99.90;;;;;;5041224;28;20268;-77
2023/04/29 00:54:06;;;;;;;7.97;6.50;;;12.60;99.90;;;;;;5030744;28;20195;-73
2023/04/29 00:56:34;;;;;;;8.33;6.50;;;12.60;99.90;;;;;;5032355;28;20730;-74
2023/04/29 00:59:02;;;;;;;10.20;6.87;;;12.50;99.90;;;;;;5036355;28;20226;-76
2023/04/29 01:01:29;;;;;;;8.03;6.60;;;12.60;99.90;;;;;;5036741;28;20289;-77
2023/04/29 01:03:56;;;;;;;10.97;6.33;;;12.60;99.90;;;;;;5034140;28;20181;-73
2023/04/29 01:07:00;;;;;;;7.10;5.93;;;12.60;99.90;;;;;;5041156;28;20177;-74
2023/04/29 01:09:49;;;;;;;11.93;7.63;;;12.70;99.90;;;;;;5034693;28;20281;-74
2023/04/29 01:12:35;;;;;;;10.77;7.40;;;12.70;99.90;;;;;;5034311;28;20224;-76
2023/04/29 01:15:09;;;;;;;11.67;8.47;;;12.50;99.90;;;;;;5036980;28;20954;-75
2023/04/29 01:17:43;;;;;;;10.27;8.13;;;12.40;99.90;;;;;;5034598;28;20215;-76
2023/04/29 01:20:09;;;;;;;16.30;9.73;;;12.40;99.90;;;;;;5039126;28;20259;-76
2023/04/29 01:22:36;;;;;;;13.10;8.63;;;12.40;99.90;;;;;;5041946;28;20302;-76
2023/04/29 01:25:01;;;;;;;12.13;8.97;;;12.40;99.90;;;;;;5045903;28;20183;-76
2023/04/29 01:27:30;;;;;;;12.10;8.53;;;12.20;99.90;;;;;;5038778;28;20176;-75
2023/04/29 01:30:06;;;;;;;12.47;9.43;;;12.20;99.90;;;;;;5039934;28;20220;-76
2023/04/29 01:32:31;;;;;;;10.60;8.83;;;12.30;99.90;;;;;;5037338;28;20230;-75
2023/04/29 01:35:18;;;;;;;11.47;8.93;;;12.30;99.90;;;;;;5042888;28;20655;-74
2023/04/29 01:38:23;;;;;;;12.53;8.83;;;12.30;99.90;;;;;;5042904;28;20224;-75
2023/04/29 01:40:58;;;;;;;11.73;9.20;;;12.20;99.90;;;;;;5043314;28;20296;-75
2023/04/29 01:43:28;;;;;;;12.57;9.17;;;12.10;99.90;;;;;;5043003;28;20215;-75
2023/04/29 01:45:55;;;;;;;11.00;8.60;;;12.10;99.90;;;;;;5042328;28;20184;-75
2023/04/29 01:48:21;;;;;;;13.47;9.63;;;12.10;99.90;;;;;;5036908;28;20185;-77
2023/04/29 01:50:47;;;;;;;11.07;8.90;;;12.10;99.90;;;;;;5047077;28;20208;-73
2023/04/29 01:53:12;;;;;;;11.53;9.20;;;12.00;99.90;;;;;;5038228;28;20623;-76
2023/04/29 01:55:38;;;;;;;13.70;9.27;;;11.90;99.90;;;;;;5043219;28;20689;-75
2023/04/29 01:58:03;;;;;;;14.63;10.30;;;11.90;99.90;;;;;;5034073;28;20208;-75
2023/04/29 02:00:29;;;;;;;14.10;10.27;;;12.00;99.90;;;;;;5038561;28;20208;-74
2023/04/29 02:02:55;;;;;;;13.70;10.43;;;12.00;99.90;;;;;;5042412;28;20270;-76
2023/04/29 02:05:20;;;;;;;14.57;11.33;;;11.90;99.90;;;;;;5048163;28;20307;-76
2023/04/29 02:07:46;;;;;;;12.73;10.57;;;11.90;99.90;;;;;;5036372;28;20220;-74
2023/04/29 02:10:12;;;;;;;14.60;11.03;;;11.90;99.90;;;;;;5035786;28;20207;-75
2023/04/29 02:12:38;;;;;;;14.17;10.30;;;11.90;99.90;;;;;;5039068;28;20215;-76
2023/04/29 02:15:04;;;;;;;16.10;12.20;;;12.00;99.90;;;;;;5035494;28;20295;-78
2023/04/29 02:17:32;;;;;;;18.70;11.17;;;12.00;99.90;;;;;;5045780;28;20211;-74
2023/04/29 02:19:57;;;;;;;15.53;12.10;;;12.00;99.90;;;;;;5048081;28;20220;-76
2023/04/29 02:22:23;;;;;;;18.47;12.90;;;12.00;99.90;;;;;;5031446;28;20226;-76
2023/04/29 02:24:48;;;;;;;16.10;12.00;;;12.00;99.90;;;;;;5037925;28;20172;-77
2023/04/29 02:27:14;;;;;;;16.10;11.83;;;12.00;99.90;;;;;;5045871;28;20168;-76
2023/04/29 02:29:40;;;;;;;17.93;13.07;;;11.90;99.90;;;;;;5042790;28;20592;-75
2023/04/29 02:32:05;;;;;;;16.10;12.27;;;11.90;99.90;;;;;;5032166;28;20722;-76
2023/04/29 02:34:31;;;;;;;16.10;11.10;;;11.90;99.90;;;;;;5039730;28;20219;-75
2023/04/29 02:36:57;;;;;;;16.37;13.63;;;11.90;99.90;;;;;;5041289;28;20183;-75
2023/04/29 02:39:23;;;;;;;17.40;12.90;;;11.90;99.90;;;;;;5033307;28;20222;-76
2023/04/29 02:41:49;;;;;;;16.30;12.83;;;11.90;99.90;;;;;;5034455;28;20235;-75
2023/04/29 02:44:14;;;;;;;15.47;12.93;;;11.90;99.90;;;;;;5038696;28;20215;-75
2023/04/29 02:46:44;;;;;;;17.50;12.97;;;11.90;99.90;;;;;;5034030;28;20227;-75
2023/04/29 02:49:10;;;;;;;15.23;12.87;;;12.00;99.90;;;;;;5031080;28;20216;-75
2023/04/29 02:51:36;;;;;;;17.17;13.63;;;11.90;99.90;;;;;;5031706;28;20212;-72
2023/04/29 02:54:02;;;;;;;19.13;14.37;;;11.80;99.90;;;;;;5035014;28;20236;-73
2023/04/29 02:56:28;;;;;;;19.27;13.47;;;11.90;99.90;;;;;;5042475;28;20747;-73
2023/04/29 02:58:54;;;;;;;17.80;13.70;;;11.90;99.90;;;;;;5044295;28;20216;-75
2023/04/29 03:01:20;;;;;;;17.03;14.00;;;11.80;99.90;;;;;;5039834;28;20334;-73
2023/04/29 03:03:46;;;;;;;17.77;14.50;;;11.80;99.90;;;;;;5039162;28;20263;-72
2023/04/29 03:06:11;;;;;;;19.73;15.00;;;11.90;99.90;;;;;;5041551;28;20598;-74
2023/04/29 03:08:37;;;;;;;18.40;14.03;;;11.80;99.90;;;;;;5039281;28;20717;-76
2023/04/29 03:11:03;;;;;;;20.73;13.93;;;11.90;99.90;;;;;;5038645;28;20273;-72
2023/04/29 03:13:28;;;;;;;19.90;15.63;;;11.90;99.90;;;;;;5035842;28;20717;-73
2023/04/29 03:15:57;;;;;;;19.60;15.07;;;11.90;99.90;;;;;;5039102;28;20591;-73
2023/04/29 03:18:23;;;;;;;20.83;16.13;;;11.80;99.90;;;;;;5041846;28;20207;-71
2023/04/29 03:20:48;;;;;;;19.87;15.00;;;11.90;99.90;;;;;;5037222;28;20232;-73
2023/04/29 03:23:14;;;;;;;19.30;15.37;;;11.90;99.90;;;;;;5036863;28;20208;-74
2023/04/29 03:25:40;;;;;;;23.40;16.17;;;11.90;99.90;;;;;;5035981;28;20203;-73
2023/04/29 03:28:06;;;;;;;21.23;15.33;;;11.90;99.90;;;;;;5033592;28;20690;-73
2023/04/29 03:30:32;;;;;;;20.40;16.30;;;12.00;99.90;;;;;;5032649;28;20208;-72
2023/04/29 03:32:58;;;;;;;22.70;16.27;;;12.00;99.90;;;;;;5038778;28;20238;-74
2023/04/29 03:35:23;;;;;;;24.93;17.13;;;12.00;99.90;;;;;;5039289;28;20214;-73
2023/04/29 03:37:49;;;;;;;21.43;16.97;;;12.10;99.90;;;;;;5041486;28;20215;-73
2023/04/29 03:40:15;;;;;;;23.27;16.43;;;12.10;99.90;;;;;;5042967;28;20259;-73
2023/04/29 03:42:40;;;;;;;29.27;17.67;;;12.10;99.90;;;;;;5037279;28;20580;-72
2023/04/29 03:45:07;;;;;;;23.80;18.10;;;12.10;99.90;;;;;;5041483;28;20223;-74
2023/04/29 03:47:32;;;;;;;25.17;17.97;;;12.10;99.90;;;;;;5032802;28;20235;-73
2023/04/29 03:49:58;;;;;;;21.27;16.27;;;12.10;99.90;;;;;;5040454;28;20204;-71
2023/04/29 03:52:24;;;;;;;22.67;17.33;;;12.10;99.90;;;;;;5028860;28;20231;-76
2023/04/29 03:54:50;;;;;;;23.87;18.50;;;12.20;99.90;;;;;;5029886;28;20212;-76
2023/04/29 03:57:15;;;;;;;24.13;19.00;;;12.20;99.90;;;;;;5031916;28;20204;-73
2023/04/29 03:59:41;;;;;;;29.17;23.47;;;12.20;99.90;;;;;;5032597;28;20428;-72
2023/04/29 04:02:07;;;;;;;27.60;19.80;;;12.20;99.90;;;;;;5040158;28;20224;-74
2023/04/29 04:04:33;;;;;;;25.40;19.33;;;12.20;99.90;;;;;;5031350;28;20200;-73
2023/04/29 04:06:59;;;;;;;27.20;20.43;;;12.20;99.90;;;;;;5029859;28;20181;-74
2023/04/29 04:09:25;;;;;;;26.07;19.60;;;12.10;99.90;;;;;;5032997;28;20274;-74
2023/04/29 04:11:50;;;;;;;28.47;19.97;;;12.20;99.90;;;;;;5036929;28;20295;-73
2023/04/29 04:14:17;;;;;;;29.17;20.67;;;12.20;99.90;;;;;;5045040;28;20204;-75
2023/04/29 04:16:43;;;;;;;31.10;21.13;;;12.30;99.90;;;;;;5036648;28;20261;-74
2023/04/29 04:19:08;;;;;;;26.77;21.17;;;12.30;99.90;;;;;;5041329;28;20216;-74
2023/04/29 04:21:34;;;;;;;27.13;20.63;;;12.30;99.90;;;;;;5040649;28;20208;-74
2023/04/29 04:24:00;;;;;;;29.40;20.03;;;12.30;99.90;;;;;;5034740;28;20205;-74
2023/04/29 04:26:25;;;;;;;28.40;21.80;;;12.30;99.90;;;;;;5034231;28;20203;-74
2023/04/29 04:28:51;;;;;;;32.23;22.27;;;12.40;99.90;;;;;;5035895;28;20216;-74
2023/04/29 04:31:17;;;;;;;29.90;21.27;;;12.40;99.90;;;;;;5034851;28;20199;-73
2023/04/29 04:33:42;;;;;;;32.27;22.00;;;12.40;99.90;;;;;;5036995;28;20180;-73
2023/04/29 04:36:08;;;;;;;28.27;22.53;;;12.50;99.90;;;;;;5038769;28;20260;-74
2023/04/29 04:38:34;;;;;;;32.27;22.10;;;12.50;99.90;;;;;;5042944;28;20218;-74
2023/04/29 04:41:00;;;;;;;30.47;22.53;;;12.50;99.90;;;;;;5037492;28;20788;-74
2023/04/29 04:43:25;;;;;;;26.97;21.10;;;12.50;99.90;;;;;;5034534;28;20235;-74
2023/04/29 04:45:51;;;;;;;31.13;21.83;;;12.40;99.90;;;;;;5037498;28;20179;-74
2023/04/29 04:48:17;;;;;;;28.47;21.50;;;12.40;99.90;;;;;;5037513;28;20176;-75
2023/04/29 04:50:43;;;;;;;31.93;22.57;;;12.40;99.90;;;;;;5031092;28;20236;-74
2023/04/29 04:53:08;;;;;;;31.17;22.57;;;12.40;99.90;;;;;;5040732;28;20594;-74
2023/04/29 04:55:34;;;;;;;31.27;23.27;;;12.40;99.90;;;;;;5036802;28;20589;-72
2023/04/29 04:58:00;;;;;;;30.00;22.57;;;12.40;99.90;;;;;;5029699;28;20201;-74
2023/04/29 05:00:26;;;;;;;33.47;23.60;;;12.40;99.90;;;;;;5036346;28;20197;-74
2023/04/29 05:02:51;;;;;;;30.10;22.83;;;12.50;99.90;;;;;;5042878;28;20215;-73
2023/04/29 05:05:17;;;;;;;34.03;23.30;;;12.50;99.90;;;;;;5035907;28;20849;-74
2023/04/29 05:07:43;;;;;;;31.20;22.73;;;12.50;99.90;;;;;;5033424;28;20212;-74
2023/04/29 05:10:09;;;;;;;32.43;23.83;;;12.50;99.90;;;;;;5038564;28;20234;-74
2023/04/29 05:12:35;;;;;;;39.53;24.40;;;12.50;99.90;;;;;;5035896;28;20200;-74
2023/04/29 05:15:01;;;;;;;34.37;24.47;;;12.50;99.90;;;;;;5038877;28;20212;-74
2023/04/29 05:17:27;;;;;;;31.53;23.30;;;12.50;99.90;;;;;;5042962;28;20202;-75
2023/04/29 05:19:53;;;;;;;31.53;22.37;;;12.50;99.90;;;;;;5043848;28;20289;-75
2023/04/29 05:22:18;;;;;;;37.53;24.23;;;12.50;99.90;;;;;;5045804;28;20229;-74
2023/04/29 05:24:44;;;;;;;33.00;23.53;;;12.50;99.90;;;;;;5042928;28;20180;-73
2023/04/29 05:27:09;;;;;;;31.00;22.03;;;12.50;99.90;;;;;;5039320;28;20176;-74
2023/04/29 05:29:35;;;;;;;35.67;23.43;;;12.50;99.90;;;;;;5038158;28;20286;-73
2023/04/29 05:32:01;;;;;;;30.63;22.60;;;12.60;99.90;;;;;;5041381;28;20309;-74
2023/04/29 05:34:27;;;;;;;33.23;23.23;;;12.60;99.90;;;;;;5036547;28;20208;-73
2023/04/29 05:36:52;;;;;;;34.10;23.50;;;12.60;99.90;;;;;;5042279;28;20191;-72
2023/04/29 05:39:18;;;;;;;34.53;23.13;;;12.60;99.90;;;;;;5042035;28;20184;-75
2023/04/29 05:41:44;;;;;;;31.87;22.80;;;12.60;99.90;;;;;;5040315;28;20224;-75
2023/04/29 05:44:09;;;;;;;33.10;22.97;;;12.60;99.90;;;;;;5042780;28;20274;-74
2023/04/29 05:46:35;;;;;;;32.50;22.50;;;12.60;99.90;;;;;;5049204;28;20203;-73
2023/04/29 05:49:01;;;;;;;31.30;21.27;;;12.60;99.90;;;;;;5046677;28;20183;-73
2023/04/29 05:51:27;;;;;;;32.20;22.33;;;12.60;99.90;;;;;;5040893;28;21122;-75
2023/04/29 05:53:53;;;;;;;32.20;22.23;;;12.60;99.90;;;;;;5033229;28;20307;-74
2023/04/29 05:56:19;;;;;;;36.20;23.03;;;12.70;99.90;;;;;;5040123;28;20223;-73
2023/04/29 05:58:45;;;;;;;33.40;23.03;;;12.70;99.90;;;;;;5040027;28;20209;-74
2023/04/29 06:01:10;;;;;;;34.37;22.63;;;12.70;99.90;;;;;;5037240;28;20235;-74
2023/04/29 06:03:36;;;;;;;32.43;21.13;;;12.70;99.90;;;;;;5032661;28;20259;-75
2023/04/29 06:06:02;;;;;;;37.20;23.33;;;12.80;99.90;;;;;;5034002;28;20217;-74
2023/04/29 06:08:28;;;;;;;34.63;22.43;;;12.70;99.90;;;;;;5033661;28;20219;-76
2023/04/29 06:10:54;;;;;;;32.80;22.27;;;12.70;99.90;;;;;;5043291;28;20211;-75
2023/04/29 06:13:19;;;;;;;32.10;22.27;;;12.70;99.90;;;;;;5037129;28;20246;-75
2023/04/29 06:15:45;;;;;;;34.17;21.43;;;12.70;99.90;;;;;;5040015;28;20235;-74
2023/04/29 06:18:11;;;;;;;29.77;20.53;;;12.70;99.90;;;;;;5033792;28;20187;-75
2023/04/29 06:20:36;;;;;;;32.83;22.73;;;12.70;99.90;;;;;;5037500;28;20277;-75
2023/04/29 06:23:02;;;;;;;35.33;21.63;;;12.80;99.90;;;;;;5034301;28;20220;-73
2023/04/29 06:25:27;;;;;;;26.80;17.80;;;12.80;99.90;;;;;;5032467;28;20234;-74
2023/04/29 06:27:53;;;;;;;30.03;20.33;;;12.60;99.90;;;;;;5047715;28;20196;-75
2023/04/29 06:30:18;;;;;;;30.30;20.13;;;12.60;99.90;;;;;;5036877;28;20246;-75
2023/04/29 06:32:44;;;;;;;31.93;20.70;;;12.70;99.90;;;;;;5036764;28;20266;-74
2023/04/29 06:35:10;;;;;;;31.83;20.30;;;12.80;99.90;;;;;;5032113;28;20709;-74
2023/04/29 06:37:35;;;;;;;30.60;20.33;;;12.70;99.90;;;;;;5034629;28;20221;-75
2023/04/29 06:40:02;;;;;;;27.93;18.70;;;12.70;99.90;;;;;;5038849;28;20637;-74
2023/04/29 06:42:27;;;;;;;29.70;19.33;;;12.70;99.90;;;;;;5037241;28;20777;-77
2023/04/29 06:44:53;;;;;;;30.73;19.20;;;12.70;99.90;;;;;;5038464;28;20294;-73
2023/04/29 06:47:19;;;;;;;30.23;18.83;;;12.70;99.90;;;;;;5037948;28;20612;-74
2023/04/29 06:49:44;;;;;;;28.87;18.17;;;12.70;99.90;;;;;;5036328;28;20216;-74
2023/04/29 06:52:10;;;;;;;29.03;18.97;;;12.80;99.90;;;;;;5031436;28;20235;-75
2023/04/29 06:54:36;;;;;;;25.10;17.17;;;12.80;99.90;;;;;;5034757;28;20655;-74
2023/04/29 06:57:01;;;;;;;26.03;17.20;;;12.70;99.90;;;;;;5034674;28;20726;-74
2023/04/29 06:59:27;;;;;;;24.27;15.93;;;12.60;99.90;;;;;;5040593;28;20207;-74
2023/04/29 07:01:52;;;;;;;25.13;16.00;;;12.60;99.90;;;;;;5033119;28;20232;-75
2023/04/29 07:04:18;;;;;;;24.00;16.27;;;12.50;99.90;;;;;;5047143;28;20657;-74
2023/04/29 07:06:45;;;;;;;24.77;15.57;;;12.50;99.90;;;;;;5037270;28;20702;-74
2023/04/29 07:09:13;;;;;;;29.63;18.83;;;12.40;99.90;;;;;;5030451;28;20188;-75
2023/04/29 07:11:39;;;;;;;31.83;17.87;;;12.40;99.90;;;;;;5038364;28;20220;-75
2023/04/29 07:14:04;;;;;;;31.20;18.13;;;12.40;99.90;;;;;;5031145;28;20329;-73
2023/04/29 07:16:30;;;;;;;31.73;18.27;;;12.50;99.90;;;;;;5035373;28;20208;-72
2023/04/29 07:18:55;;;;;;;30.70;18.33;;;12.40;99.90;;;;;;5037330;28;21157;-75
2023/04/29 07:21:21;;;;;;;28.80;18.63;;;12.40;99.90;;;;;;5038495;28;20266;-74
2023/04/29 07:23:47;;;;;;;23.97;17.07;;;12.50;99.90;;;;;;5035977;28;20299;-75
2023/04/29 07:26:15;;;;;;;35.13;19.67;;;12.50;99.90;;;;;;5032204;28;20208;-73
2023/04/29 07:28:42;;;;;;;25.97;17.93;;;12.60;99.90;;;;;;5029691;28;20608;-75
2023/04/29 07:31:08;;;;;;;31.13;19.67;;;12.60;99.90;;;;;;5046498;28;20221;-75
2023/04/29 07:33:34;;;;;;;25.13;18.10;;;12.60;99.90;;;;;;5037422;28;20222;-75
2023/04/29 07:36:01;;;;;;;27.43;18.10;;;12.40;99.90;;;;;;5037170;28;20208;-75
2023/04/29 07:38:27;;;;;;;23.90;17.23;;;12.50;99.90;;;;;;5035261;28;20283;-74
2023/04/29 07:40:53;;;;;;;22.73;16.93;;;12.50;99.90;;;;;;5036313;28;20666;-74
2023/04/29 07:43:19;;;;;;;27.00;16.97;;;12.50;99.90;;;;;;5047269;28;20263;-75
2023/04/29 07:45:44;;;;;;;20.27;16.77;;;12.60;99.90;;;;;;5036601;28;20203;-76
2023/04/29 07:48:10;;;;;;;21.30;14.73;;;12.60;99.90;;;;;;5037822;28;20172;-75
2023/04/29 07:50:36;;;;;;;21.17;15.97;;;12.70;99.90;;;;;;5036953;28;20211;-75
2023/04/29 07:53:02;;;;;;;20.20;15.90;;;12.60;99.90;;;;;;5040148;28;20224;-77
2023/04/29 07:55:31;;;;;;;20.27;15.77;;;12.60;99.90;;;;;;5034700;28;20234;-79
2023/04/29 07:57:57;;;;;;;19.83;15.87;;;12.70;99.90;;;;;;5049186;28;20196;-77
2023/04/29 08:00:23;;;;;;;20.60;15.07;;;12.60;99.90;;;;;;5040583;28;20192;-77
2023/04/29 08:02:53;;;;;;;20.43;15.37;;;12.60;99.90;;;;;;5030966;28;20322;-77
2023/04/29 08:05:22;;;;;;;20.57;14.20;;;12.40;99.90;;;;;;5034631;28;20230;-76
2023/04/29 08:07:48;;;;;;;18.70;13.40;;;12.40;99.90;;;;;;5039470;28;20258;-77
2023/04/29 08:10:14;;;;;;;15.50;12.87;;;12.40;99.90;;;;;;5030338;28;20354;-78
2023/04/29 08:12:40;;;;;;;16.47;13.27;;;12.30;99.90;;;;;;5032700;28;20196;-79
2023/04/29 08:15:06;;;;;;;16.37;13.20;;;12.40;99.90;;;;;;5039642;28;20848;-77
2023/04/29 08:17:32;;;;;;;17.97;13.03;;;12.30;99.90;;;;;;5036105;28;20200;-76
2023/04/29 08:19:58;;;;;;;16.40;12.80;;;12.40;99.90;;;;;;5029515;28;20239;-77
2023/04/29 08:22:24;;;;;;;16.27;12.23;;;12.30;99.90;;;;;;5041428;28;20295;-77
2023/04/29 08:24:49;;;;;;;15.33;12.30;;;12.20;99.90;;;;;;5041094;28;20542;-77
2023/04/29 08:27:15;;;;;;;15.60;12.50;;;12.20;99.90;;;;;;5041883;28;20176;-78
2023/04/29 08:29:41;;;;;;;15.37;11.90;;;12.30;99.90;;;;;;5029572;28;20211;-77
2023/04/29 08:32:07;;;;;;;14.67;11.47;;;12.20;99.90;;;;;;5035183;28;20581;-77
2023/04/29 08:34:35;;;;;;;14.07;11.57;;;12.20;99.90;;;;;;5038933;28;20200;-77
2023/04/29 08:37:01;;;;;;;13.87;11.60;;;12.20;99.90;;;;;;5029744;28;20176;-79
2023/04/29 08:39:28;;;;;;;16.27;11.97;;;12.20;99.90;;;;;;5045490;28;20604;-78
2023/04/29 08:41:56;;;;;;;15.50;11.37;;;12.20;99.90;;;;;;5040065;28;20311;-77
2023/04/29 08:44:22;;;;;;;16.13;12.20;;;12.20;99.90;;;;;;5051077;28;20214;-77
2023/04/29 08:46:49;;;;;;;17.47;12.90;;;12.20;99.90;;;;;;5039288;28;20199;-78
2023/04/29 08:49:15;;;;;;;16.30;13.07;;;12.30;99.90;;;;;;5041010;28;20675;-77
2023/04/29 08:51:41;;;;;;;15.47;11.80;;;12.30;99.90;;;;;;5037936;28;20215;-77
2023/04/29 08:54:06;;;;;;;15.53;11.67;;;12.20;99.90;;;;;;5046784;28;20235;-76
2023/04/29 08:56:33;;;;;;;15.83;11.90;;;12.30;99.90;;;;;;5046977;28;20215;-77
2023/04/29 08:59:01;;;;;;;16.17;11.60;;;12.30;99.90;;;;;;5039025;28;20242;-76
2023/04/29 09:01:28;;;;;;;16.53;11.77;;;12.30;99.90;;;;;;5046532;28;20223;-77
2023/04/29 09:04:14;;;;;;;16.70;12.47;;;12.30;99.90;;;;;;5039346;28;20195;-81
2023/04/29 09:06:40;;;;;;;20.93;14.30;;;12.30;99.90;;;;;;5037739;28;20610;-78
2023/04/29 09:09:06;;;;;;;22.63;14.47;;;12.20;99.90;;;;;;5037968;28;20290;-78
2023/04/29 09:11:33;;;;;;;23.40;14.80;;;12.20;99.90;;;;;;5037680;28;20301;-77
2023/04/29 09:14:01;;;;;;;19.93;14.73;;;12.20;99.90;;;;;;5033162;28;20725;-78
2023/04/29 09:16:28;;;;;;;20.93;14.57;;;12.20;99.90;;;;;;5036844;28;20231;-78
2023/04/29 09:18:55;;;;;;;21.00;14.60;;;12.20;99.90;;;;;;5037458;28;20571;-77
2023/04/29 09:21:22;;;;;;;20.17;14.70;;;12.20;99.90;;;;;;5032484;28;20208;-78
2023/04/29 09:23:50;;;;;;;23.43;16.23;;;12.20;99.90;;;;;;5034650;28;20211;-77
2023/04/29 09:26:16;;;;;;;22.13;15.20;;;12.20;99.90;;;;;;5031316;28;20204;-74
2023/04/29 09:28:46;;;;;;;23.17;16.40;;;12.20;99.90;;;;;;5041797;28;20273;-71
2023/04/29 09:31:13;;;;;;;24.20;16.73;;;12.30;99.90;;;;;;5038918;28;20323;-70
2023/04/29 09:33:56;;;;;;;27.77;17.93;;;12.30;99.90;;;;;;5035240;28;20172;-73
2023/04/29 09:36:57;;;;;;;27.33;17.70;;;12.30;99.90;;;;;;5032632;28;20258;-73
2023/04/29 09:39:24;;;;;;;27.57;18.13;;;12.20;99.90;;;;;;5039618;28;20208;-75
2023/04/29 09:41:52;;;;;;;27.63;18.80;;;12.20;99.90;;;;;;5030138;28;20308;-75
2023/04/29 09:44:26;;;;;;;32.00;21.20;;;12.30;99.90;;;;;;5036091;28;20199;-75
2023/04/29 09:47:07;;;;;;;30.80;21.47;;;12.30;99.90;;;;;;5041996;28;20268;-73
2023/04/29 09:49:37;;;;;;;31.50;19.53;;;12.30;99.90;;;;;;5040994;28;20251;-78
2023/04/29 09:52:04;;;;;;;32.27;21.33;;;12.30;99.90;;;;;;5034776;28;20599;-74
2023/04/29 09:54:32;;;;;;;34.63;21.63;;;12.30;99.90;;;;;;5039045;28;20263;-75
2023/04/29 09:57:01;;;;;;;31.40;20.97;;;12.30;99.90;;;;;;5044227;28;20232;-77
2023/04/29 09:59:26;;;;;;;30.33;22.27;;;12.40;99.90;;;;;;5035988;28;20207;-74
2023/04/29 10:01:55;;;;;;;36.47;23.23;;;12.40;99.90;;;;;;5043349;28;20220;-74
2023/04/29 10:04:23;;;;;;;39.57;24.43;;;12.40;99.90;;;;;;5040258;28;20220;-75
2023/04/29 10:06:51;;;;;;;45.13;26.53;;;12.40;99.90;;;;;;5041968;28;20188;-74
2023/04/29 10:09:18;;;;;;;42.40;27.87;;;12.40;99.90;;;;;;5041865;28;20195;-73
2023/04/29 10:11:45;;;;;;;45.40;26.13;;;12.30;99.90;;;;;;5042101;28;20693;-75
2023/04/29 10:14:21;;;;;;;47.87;28.70;;;12.30;99.90;;;;;;5039864;28;20246;-75
2023/04/29 10:17:07;;;;;;;45.30;27.70;;;12.30;99.90;;;;;;5040411;28;20213;-75
2023/04/29 10:19:53;;;;;;;45.43;28.57;;;12.30;99.90;;;;;;5035576;28;20206;-73
2023/04/29 10:22:26;;;;;;;45.73;29.60;;;12.20;99.90;;;;;;5042479;28;20231;-75
2023/04/29 10:24:54;;;;;;;47.37;30.10;;;12.30;99.90;;;;;;5038896;28;20184;-73
2023/04/29 10:27:21;;;;;;;52.17;30.43;;;12.20;99.90;;;;;;5042323;28;20176;-75
2023/04/29 10:29:49;;;;;;;50.83;31.63;;;12.30;99.90;;;;;;5040893;28;20211;-74
2023/04/29 10:32:16;;;;;;;42.10;30.17;;;12.40;99.90;;;;;;5037842;28;20258;-72
2023/04/29 10:34:42;;;;;;;47.03;29.07;;;12.40;99.90;;;;;;5039502;28;20215;-75
2023/04/29 10:37:10;;;;;;;44.13;28.57;;;12.60;99.90;;;;;;5036631;28;20220;-78
2023/04/29 10:40:07;;;;;;;44.13;27.33;;;12.60;99.90;;;;;;5040121;28;20218;-76
2023/04/29 10:42:45;;;;;;;42.97;26.93;;;12.60;99.90;;;;;;5033011;28;20216;-74
2023/04/29 10:45:20;;;;;;;43.70;27.20;;;12.50;99.90;;;;;;5041760;28;20206;-74
2023/04/29 10:48:09;;;;;;;42.60;28.67;;;12.50;99.90;;;;;;5033602;28;20203;-76
2023/04/29 10:50:46;;;;;;;48.67;29.13;;;12.40;99.90;;;;;;5040300;28;20208;-77
2023/04/29 10:53:18;;;;;;;40.70;25.70;;;12.50;99.90;;;;;;5035243;28;20226;-75
2023/04/29 10:55:47;;;;;;;39.77;25.50;;;12.40;99.90;;;;;;5040020;28;20219;-79
2023/04/29 10:58:44;;;;;;;36.17;24.53;;;12.40;99.90;;;;;;5035146;28;20216;-73
2023/04/29 11:01:12;;;;;;;31.43;23.03;;;12.50;99.90;;;;;;5040990;28;20227;-74
2023/04/29 11:03:53;;;;;;;32.87;21.87;;;12.70;99.90;;;;;;5030399;28;20685;-77
2023/04/29 11:06:22;;;;;;;30.83;21.80;;;12.80;99.90;;;;;;5037670;28;20820;-72
2023/04/29 11:08:59;;;;;;;31.80;21.90;;;12.90;99.90;;;;;;5039442;28;20220;-78
2023/04/29 11:11:25;;;;;;;28.00;20.90;;;12.90;99.90;;;;;;5040969;28;20263;-84
2023/04/29 11:13:51;;;;;;;27.97;20.63;;;12.80;99.90;;;;;;5057168;28;20755;-80
2023/04/29 11:16:28;;;;;;;27.20;19.80;;;13.00;99.90;;;;;;5038822;28;20208;-79
2023/04/29 11:19:05;;;;;;;23.03;18.90;;;13.00;99.90;;;;;;5048125;28;20182;-85
2023/04/29 11:21:35;;;;;;;28.97;19.40;;;13.10;99.90;;;;;;5054277;28;20216;-82
2023/04/29 11:24:05;;;;;;;26.07;19.97;;;13.30;99.90;;;;;;5046942;28;20756;-82
2023/04/29 11:26:35;;;;;;;24.73;17.90;;;13.50;99.90;;;;;;5051742;28;20244;-80
2023/04/29 11:29:00;;;;;;;28.17;22.42;;;13.70;99.90;;;;;;5040217;28;20215;-81
2023/04/29 11:31:30;;;;;;;27.02;17.58;;;13.80;99.90;;;;;;5042267;28;20216;-82
2023/04/29 11:33:56;;;;;;;26.70;18.35;;;13.80;99.90;;;;;;5043451;28;20211;-81
2023/04/29 11:36:22;;;;;;;23.77;16.27;;;13.70;99.90;;;;;;5052809;28;20177;-80
2023/04/29 11:38:47;;;;;;;21.52;17.23;;;13.90;99.90;;;;;;5063501;28;20204;-81
2023/04/29 11:41:14;;;;;;;23.48;16.35;;;13.90;99.90;;;;;;5063153;28;20228;-81
2023/04/29 11:43:42;;;;;;;21.23;16.08;;;13.90;99.90;;;;;;5049932;28;20290;-79
2023/04/29 11:46:15;;;;;;;19.33;15.07;;;14.00;99.90;;;;;;5041762;28;20271;-80
2023/04/29 11:48:48;;;;;;;19.38;14.30;;;13.90;99.90;;;;;;5044488;28;20199;-78
2023/04/29 11:51:18;;;;;;;19.05;14.18;;;13.90;99.90;;;;;;5039550;28;20218;-76
2023/04/29 11:53:44;;;;;;;19.48;14.65;;;14.00;99.90;;;;;;5035755;28;20228;-77
2023/04/29 11:56:10;;;;;;;18.70;15.30;;;14.00;99.90;;;;;;5039876;28;20208;-78
2023/04/29 11:58:36;;;;;;;25.80;15.30;;;13.90;99.90;;;;;;5038379;28;20204;-76
2023/04/29 12:01:05;;;;;;;19.92;14.93;;;13.90;99.90;;;;;;5033995;28;20717;-77
2023/04/29 12:03:32;;;;;;;22.10;16.52;;;13.90;99.90;;;;;;5033871;28;20451;-73
2023/04/29 12:05:58;;;;;;;19.13;14.50;;;13.90;99.90;;;;;;5042006;28;20219;-78
2023/04/29 12:08:26;;;;;;;22.02;13.93;;;14.00;99.90;;;;;;5035736;28;20484;-78
2023/04/29 12:10:53;;;;;;;20.75;15.00;;;13.90;99.90;;;;;;5041558;28;20218;-79
2023/04/29 12:13:19;;;;;;;17.55;14.05;;;13.80;99.90;;;;;;5041773;28;20218;-75
2023/04/29 12:15:46;;;;;;;19.17;13.95;;;13.80;99.90;;;;;;5038378;28;20176;-75
2023/04/29 12:18:12;;;;;;;23.63;15.55;;;13.70;99.90;;;;;;5039930;28;20180;-75
2023/04/29 12:20:39;;;;;;;24.23;14.75;;;13.70;99.90;;;;;;5028074;28;20234;-77
2023/04/29 12:23:18;;;;;;;19.27;14.52;;;13.50;99.90;;;;;;5030802;28;20231;-75
2023/04/29 12:25:52;;;;;;;20.55;13.68;;;13.50;99.90;;;;;;5031403;28;20200;-76
2023/04/29 12:28:18;;;;;;;20.95;14.73;;;13.50;99.90;;;;;;5041142;28;20217;-77
2023/04/29 12:30:48;;;;;;;19.17;13.50;;;13.60;99.90;;;;;;5033102;28;20204;-76